createdAt,value
2015-10-31T11:59:07.242Z,40
2015-10-31T11:59:48.293Z,41
2015-10-31T12:00:01.043Z,40
2015-10-31T12:00:13.277Z,40
2015-10-31T12:00:26.355Z,40
2015-10-31T12:00:41.402Z,40
2015-10-31T12:00:53.843Z,40
2015-10-31T12:01:05.890Z,40
2015-10-31T12:01:18.671Z,40
2015-10-31T12:01:31.280Z,41
2015-10-31T12:01:43.812Z,40
2015-10-31T12:01:56.985Z,40
2015-10-31T12:02:09.126Z,41
2015-10-31T12:02:21.595Z,39
2015-10-31T12:02:33.579Z,40
2015-10-31T12:02:45.520Z,40
2015-10-31T12:02:57.926Z,43
2015-10-31T12:03:09.895Z,40
2015-10-31T12:03:23.535Z,39
2015-10-31T12:03:36.082Z,40
2015-10-31T12:03:51.459Z,39
2015-10-31T12:04:03.490Z,40
2015-10-31T12:04:16.459Z,41
2015-10-31T12:04:29.272Z,41
2015-10-31T12:04:41.194Z,40
2015-10-31T12:04:53.400Z,40
2015-10-31T12:05:05.337Z,41
2015-10-31T12:05:17.275Z,41
2015-10-31T12:05:29.259Z,41
2015-10-31T12:05:41.197Z,39
2015-10-31T12:05:53.715Z,40
2015-10-31T12:06:05.746Z,41
2015-10-31T12:06:18.090Z,42
2015-10-31T12:06:30.137Z,40
2015-10-31T12:06:42.200Z,40
2015-10-31T12:06:54.718Z,41
2015-10-31T12:07:06.703Z,39
2015-10-31T12:07:18.656Z,40
2015-10-31T12:07:31.343Z,41
2015-10-31T12:07:46.861Z,40
2015-10-31T12:07:59.423Z,40
2015-10-31T12:08:15.095Z,41
2015-10-31T12:08:28.501Z,40
2015-10-31T12:08:40.814Z,41
2015-10-31T12:08:53.286Z,39
2015-10-31T12:09:05.614Z,42
2015-10-31T12:09:18.739Z,39
2015-10-31T12:09:30.786Z,40
2015-10-31T12:09:43.629Z,39
2015-10-31T12:09:55.663Z,40
2015-10-31T12:10:07.835Z,39
2015-10-31T12:10:19.960Z,41
2015-10-31T12:10:31.960Z,39
2015-10-31T12:10:44.038Z,40
2015-10-31T12:10:56.384Z,42
2015-10-31T12:11:09.197Z,40
2015-10-31T12:11:21.697Z,40
2015-10-31T12:11:33.728Z,40
2015-10-31T12:11:45.747Z,39
2015-10-31T12:11:57.762Z,40
2015-10-31T12:12:10.169Z,40
2015-10-31T12:12:22.591Z,41
2015-10-31T12:12:35.091Z,40
2015-10-31T12:12:47.515Z,43
2015-10-31T12:13:00.047Z,40
2015-10-31T12:13:12.922Z,39
2015-10-31T12:13:25.953Z,41
2015-10-31T12:13:38.750Z,40
2015-10-31T12:13:51.205Z,40
2015-10-31T12:14:07.377Z,39
2015-10-31T12:14:19.330Z,42
2015-10-31T12:14:32.361Z,42
2015-10-31T12:14:44.392Z,40
2015-10-31T12:14:56.442Z,42
2015-10-31T12:15:08.458Z,41
2015-10-31T12:15:20.442Z,39
2015-10-31T12:15:32.395Z,39
2015-10-31T12:15:44.364Z,39
2015-10-31T12:15:57.648Z,40
2015-10-31T12:16:09.633Z,39
2015-10-31T12:16:21.570Z,40
2015-10-31T12:16:34.133Z,41
2015-10-31T12:16:46.447Z,40
2015-10-31T12:16:58.869Z,41
2015-10-31T12:17:11.135Z,41
2015-10-31T12:17:23.291Z,40
2015-10-31T12:17:35.854Z,41
2015-10-31T12:17:48.341Z,41
2015-10-31T12:18:00.810Z,40
2015-10-31T12:18:13.044Z,40
2015-10-31T12:18:26.169Z,41
2015-10-31T12:18:38.169Z,42
2015-10-31T12:18:50.250Z,42
2015-10-31T12:19:02.688Z,41
2015-10-31T12:19:14.703Z,42
2015-10-31T12:19:27.031Z,39
2015-10-31T12:19:39.797Z,41
2015-10-31T12:19:51.815Z,42
2015-10-31T12:20:04.377Z,42
2015-10-31T12:20:16.377Z,40
2015-10-31T12:20:29.174Z,42
2015-10-31T12:20:41.752Z,41
2015-10-31T12:20:53.661Z,39
2015-10-31T12:21:06.724Z,41
2015-10-31T12:21:18.724Z,41
2015-10-31T12:21:32.240Z,40
2015-10-31T12:21:44.161Z,40
2015-10-31T12:21:56.211Z,39
2015-10-31T12:22:08.571Z,40
2015-10-31T12:22:20.914Z,39
2015-10-31T12:22:33.383Z,39
2015-10-31T12:22:45.758Z,41
2015-10-31T12:22:57.729Z,42
2015-10-31T12:23:09.729Z,39
2015-10-31T12:23:22.276Z,39
2015-10-31T12:23:34.760Z,42
2015-10-31T12:23:47.057Z,41
2015-10-31T12:23:59.060Z,42
2015-10-31T12:24:10.982Z,39
2015-10-31T12:24:22.935Z,39
2015-10-31T12:24:35.451Z,41
2015-10-31T12:24:47.279Z,41
2015-10-31T12:24:59.219Z,40
2015-10-31T12:25:11.079Z,41
2015-10-31T12:25:22.954Z,42
2015-10-31T12:25:35.657Z,39
2015-10-31T12:25:47.516Z,39
2015-10-31T12:26:00.004Z,40
2015-10-31T12:26:12.629Z,39
2015-10-31T12:26:26.816Z,40
2015-10-31T12:26:40.066Z,39
2015-10-31T12:26:53.506Z,41
2015-10-31T12:27:06.521Z,40
2015-10-31T12:27:18.506Z,41
2015-10-31T12:27:32.912Z,41
2015-10-31T12:27:44.912Z,42
2015-10-31T12:27:57.399Z,40
2015-10-31T12:28:09.993Z,41
2015-10-31T12:28:22.024Z,40
2015-10-31T12:28:34.102Z,40
2015-10-31T12:28:46.727Z,40
2015-10-31T12:28:59.215Z,40
2015-10-31T12:29:11.308Z,40
2015-10-31T12:29:23.355Z,40
2015-10-31T12:29:40.012Z,40
2015-10-31T12:29:56.607Z,40
2015-10-31T12:30:08.982Z,41
2015-10-31T12:30:24.076Z,41
2015-10-31T12:30:36.482Z,41
2015-10-31T12:30:53.938Z,40
2015-10-31T12:31:06.001Z,40
2015-10-31T12:31:18.548Z,39
2015-10-31T12:31:31.220Z,41
2015-10-31T12:31:44.032Z,41
2015-10-31T12:31:55.863Z,40
2015-10-31T12:32:07.691Z,39
2015-10-31T12:32:19.582Z,39
2015-10-31T12:32:38.426Z,39
2015-10-31T12:32:50.787Z,39
2015-10-31T12:33:02.631Z,39
2015-10-31T12:33:14.506Z,39
2015-10-31T12:33:26.881Z,39
2015-10-31T12:33:39.334Z,41
2015-10-31T12:33:52.837Z,39
2015-10-31T12:34:07.759Z,39
2015-10-31T12:34:19.665Z,40
2015-10-31T12:34:31.962Z,39
2015-10-31T12:34:44.509Z,39
2015-10-31T12:34:56.434Z,41
2015-10-31T12:35:09.621Z,41
2015-10-31T12:35:24.559Z,41
2015-10-31T12:35:37.199Z,40
2015-10-31T19:00:42.437Z,40
2015-10-31T19:00:57.218Z,42
2015-10-31T19:01:12.609Z,43
2015-10-31T19:01:26.721Z,42
2015-10-31T19:01:40.643Z,44
2015-10-31T19:01:55.127Z,42
2015-10-31T19:02:09.440Z,42
2015-10-31T19:02:23.490Z,42
2015-10-31T19:02:37.068Z,41
2015-10-31T19:02:54.224Z,44
2015-10-31T19:03:07.177Z,43
2015-10-31T19:03:20.333Z,42
2015-10-31T19:03:33.696Z,43
2015-10-31T19:03:47.305Z,44
2015-10-31T19:04:00.602Z,42
2015-10-31T19:04:14.289Z,42
2015-10-31T19:04:27.745Z,42
2015-10-31T19:04:40.948Z,42
2015-10-31T19:04:57.370Z,43
2015-10-31T19:05:14.885Z,42
2015-10-31T19:11:11.745Z,44
2015-10-31T19:11:23.995Z,43
2015-10-31T19:11:40.326Z,45
2015-10-31T19:11:52.982Z,44
2015-10-31T19:12:05.592Z,44
2015-10-31T19:12:18.607Z,47
2015-10-31T19:30:35.734Z,46
2015-10-31T19:30:48.378Z,46
2015-10-31T19:31:00.597Z,46
2015-10-31T19:31:13.284Z,46
2015-10-31T19:31:25.566Z,46
2015-10-31T19:31:38.503Z,46
2015-10-31T19:31:53.318Z,46
2015-10-31T19:32:06.411Z,51
2015-10-31T19:32:20.146Z,46
2015-10-31T19:32:32.427Z,46
2015-10-31T19:32:44.739Z,50
2015-10-31T19:32:57.383Z,46
2015-10-31T19:33:10.321Z,49
2015-10-31T19:33:24.711Z,46
2015-10-31T19:33:37.180Z,47
2015-10-31T19:33:49.652Z,46
2015-10-31T19:34:02.636Z,46
2015-10-31T19:34:14.839Z,46
2015-10-31T19:34:31.574Z,47
2015-10-31T19:34:44.167Z,46
2015-10-31T19:34:57.013Z,47
2015-10-31T19:35:13.404Z,47
2015-10-31T19:35:27.154Z,49
2015-10-31T19:35:39.701Z,47
2015-10-31T19:35:52.344Z,49
2015-10-31T19:36:05.157Z,47
2015-10-31T19:36:21.266Z,47
2015-10-31T19:36:34.235Z,47
2015-10-31T19:36:47.160Z,47
2015-10-31T19:37:06.582Z,47
2015-10-31T19:37:21.800Z,47
2015-10-31T19:37:35.644Z,47
2015-10-31T19:37:48.646Z,47
2015-10-31T19:38:02.287Z,47
2015-10-31T20:12:28.927Z,51
2015-10-31T20:12:41.755Z,51
2015-10-31T20:12:53.942Z,51
2015-10-31T20:13:06.239Z,51
2015-10-31T20:13:18.305Z,52
2015-10-31T20:13:30.289Z,54
2015-10-31T20:13:42.273Z,51
2015-10-31T20:13:54.273Z,51
2015-10-31T20:14:06.742Z,51
2015-10-31T20:14:18.713Z,51
2015-10-31T20:14:31.400Z,50
2015-10-31T20:14:44.463Z,51
2015-10-31T20:14:56.791Z,51
2015-10-31T20:15:09.342Z,52
2015-10-31T20:15:22.467Z,51
2015-10-31T20:15:35.436Z,52
2015-10-31T20:15:48.357Z,51
2015-10-31T20:16:05.639Z,51
2015-10-31T20:16:18.516Z,51
2015-10-31T20:16:34.422Z,53
2015-10-31T20:16:48.328Z,52
2015-10-31T20:17:00.719Z,52
2015-10-31T20:17:13.643Z,52
2015-10-31T20:17:26.080Z,53
2015-10-31T20:17:38.643Z,50
2015-10-31T20:17:51.424Z,51
2015-10-31T20:18:04.049Z,54
2015-10-31T20:18:16.208Z,54
2015-10-31T20:18:28.568Z,51
2015-10-31T20:18:40.724Z,53
2015-10-31T20:18:52.896Z,54
2015-10-31T20:19:06.068Z,51
2015-10-31T20:19:19.602Z,53
2015-10-31T20:19:31.930Z,53
2015-10-31T20:19:44.211Z,51
2015-10-31T20:19:56.680Z,51
2015-10-31T20:20:09.383Z,51
2015-10-31T20:20:24.886Z,54
2015-10-31T20:20:37.605Z,55
2015-10-31T20:20:49.855Z,53
2015-10-31T20:21:02.183Z,51
2015-10-31T20:21:14.966Z,52
2015-10-31T20:21:31.029Z,52
2015-10-31T20:21:43.966Z,54
2015-10-31T20:21:56.591Z,54
2015-10-31T20:22:10.013Z,52
2015-10-31T20:22:23.375Z,51
2015-10-31T20:22:35.641Z,51
2015-10-31T20:22:48.360Z,51
2015-10-31T20:23:01.157Z,51
2015-10-31T20:23:15.847Z,54
2015-10-31T20:23:28.160Z,51
2015-10-31T20:23:40.285Z,54
2015-10-31T20:23:52.347Z,51
2015-10-31T20:24:04.753Z,51
2015-10-31T20:24:17.913Z,51
2015-10-31T20:24:30.366Z,51
2015-10-31T20:24:42.444Z,53
2015-10-31T20:24:54.585Z,51
2015-10-31T20:25:07.163Z,53
2015-10-31T20:25:19.306Z,50
2015-10-31T20:25:31.416Z,51
2015-10-31T20:25:43.431Z,51
2015-10-31T20:25:55.588Z,55
2015-10-31T20:26:10.744Z,54
2015-10-31T20:26:22.855Z,51
2015-10-31T20:26:35.621Z,54
2015-10-31T20:26:48.449Z,51
2015-10-31T20:27:00.558Z,54
2015-10-31T20:27:13.310Z,51
2015-10-31T20:27:25.451Z,52
2015-10-31T20:27:37.685Z,51
2015-10-31T20:27:49.826Z,51
2015-10-31T20:28:02.013Z,53
2015-10-31T20:28:15.032Z,54
2015-10-31T20:28:31.220Z,51
2015-10-31T20:28:48.735Z,51
2015-10-31T20:29:04.001Z,51
2015-10-31T20:29:23.261Z,54
2015-10-31T20:29:36.855Z,53
2015-10-31T20:29:49.105Z,53
2015-10-31T20:30:02.590Z,51
2015-10-31T20:30:14.991Z,53
2015-10-31T20:30:32.506Z,55
2015-10-31T20:30:45.944Z,53
2015-10-31T20:31:03.131Z,55
2015-10-31T20:31:15.954Z,51
2015-10-31T20:31:40.594Z,53
2015-10-31T20:31:58.719Z,51
2015-10-31T20:32:11.938Z,56
2015-10-31T20:32:27.574Z,51
2015-10-31T20:32:39.964Z,51
2015-10-31T20:32:52.089Z,54
2015-10-31T20:33:04.433Z,51
2015-10-31T20:33:19.849Z,51
2015-10-31T20:33:31.927Z,53
2015-10-31T20:34:01.818Z,55
2015-10-31T20:34:22.802Z,52
2015-10-31T20:34:35.786Z,53
2015-10-31T20:34:54.411Z,51
2015-10-31T20:35:12.583Z,54
2015-10-31T20:35:25.536Z,51
2015-10-31T20:35:42.755Z,51
2015-10-31T20:35:55.818Z,51
2015-10-31T20:36:09.349Z,51
